sensor_id;sensor_type;location;lat;lon;timestamp;pressure;altitude;pressure_sealevel;temperature;humidity
13690;BME280;6917;52.194;9.894;2023-03-04T00:02:00;101054.63;;;2.94;100.00
13690;BME280;6917;52.194;9.894;2023-03-04T00:04:25;101057.34;;;2.94;100.00
13690;BME280;6917;52.194;9.894;2023-03-04T00:06:51;101058.97;;;2.95;100.00
13690;BME280;6917;52.194;9.894;2023-03-04T00:09:16;101055.78;;;2.98;100.00
13690;BME280;6917;52.194;9.894;2023-03-04T00:11:41;101058.47;;;2.98;100.00
13690;BME280;6917;52.194;9.894;2023-03-04T00:14:06;101058.22;;;2.99;100.00
13690;BME280;6917;52.194;9.894;2023-03-04T00:16:32;101060.69;;;3.01;100.00
13690;BME280;6917;52.194;9.894;2023-03-04T00:18:57;101060.44;;;3.03;100.00
13690;BME280;6917;52.194;9.894;2023-03-04T00:21:23;101055.84;;;3.03;100.00
13690;BME280;6917;52.194;9.894;2023-03-04T00:23:48;101058.31;;;3.05;100.00
13690;BME280;6917;52.194;9.894;2023-03-04T00:26:14;101064.03;;;3.08;100.00
13690;BME280;6917;52.194;9.894;2023-03-04T00:28:39;101062.72;;;3.11;100.00
13690;BME280;6917;52.194;9.894;2023-03-04T00:31:06;101058.72;;;3.13;100.00
13690;BME280;6917;52.194;9.894;2023-03-04T00:33:31;101054.38;;;3.12;100.00
13690;BME280;6917;52.194;9.894;2023-03-04T00:35:56;101053.06;;;3.15;100.00
13690;BME280;6917;52.194;9.894;2023-03-04T00:38:22;101056.25;;;3.12;100.00
13690;BME280;6917;52.194;9.894;2023-03-04T00:40:47;101051.94;;;3.11;100.00
13690;BME280;6917;52.194;9.894;2023-03-04T00:43:12;101052.75;;;3.11;100.00
13690;BME280;6917;52.194;9.894;2023-03-04T00:45:38;101054.38;;;3.12;100.00
13690;BME280;6917;52.194;9.894;2023-03-04T00:48:03;101048.16;;;3.12;100.00
13690;BME280;6917;52.194;9.894;2023-03-04T00:50:28;101051.13;;;3.10;100.00
13690;BME280;6917;52.194;9.894;2023-03-04T00:52:53;101056.50;;;3.10;100.00
13690;BME280;6917;52.194;9.894;2023-03-04T00:55:19;101043.81;;;3.11;100.00
13690;BME280;6917;52.194;9.894;2023-03-04T00:57:44;101055.19;;;3.13;100.00
13690;BME280;6917;52.194;9.894;2023-03-04T01:00:12;101050.63;;;3.13;100.00
13690;BME280;6917;52.194;9.894;2023-03-04T01:02:38;101044.41;;;3.13;100.00
13690;BME280;6917;52.194;9.894;2023-03-04T01:05:03;101047.59;;;3.10;100.00
13690;BME280;6917;52.194;9.894;2023-03-04T01:07:29;101045.97;;;3.09;100.00
13690;BME280;6917;52.194;9.894;2023-03-04T01:09:54;101040.88;;;3.12;100.00
13690;BME280;6917;52.194;9.894;2023-03-04T01:12:19;101038.19;;;3.12;100.00
13690;BME280;6917;52.194;9.894;2023-03-04T01:14:45;101031.47;;;3.15;100.00
13690;BME280;6917;52.194;9.894;2023-03-04T01:17:10;101033.09;;;3.16;100.00
13690;BME280;6917;52.194;9.894;2023-03-04T01:19:36;101030.16;;;3.17;100.00
13690;BME280;6917;52.194;9.894;2023-03-04T01:22:02;101030.75;;;3.19;100.00
13690;BME280;6917;52.194;9.894;2023-03-04T01:24:27;101021.81;;;3.19;100.00
13690;BME280;6917;52.194;9.894;2023-03-04T01:26:54;101025.41;;;3.24;100.00
13690;BME280;6917;52.194;9.894;2023-03-04T01:29:19;101011.09;;;3.24;100.00
13690;BME280;6917;52.194;9.894;2023-03-04T01:31:44;101017.06;;;3.26;100.00
13690;BME280;6917;52.194;9.894;2023-03-04T01:34:10;101009.50;;;3.28;100.00
13690;BME280;6917;52.194;9.894;2023-03-04T01:36:35;101010.09;;;3.30;99.73
13690;BME280;6917;52.194;9.894;2023-03-04T01:39:00;101009.00;;;3.31;99.71
13690;BME280;6917;52.194;9.894;2023-03-04T01:41:26;101001.50;;;3.33;99.47
13690;BME280;6917;52.194;9.894;2023-03-04T01:43:57;101001.72;;;3.32;99.59
13690;BME280;6917;52.194;9.894;2023-03-04T01:46:25;100995.50;;;3.31;99.84
13690;BME280;6917;52.194;9.894;2023-03-04T01:48:50;100990.38;;;3.29;99.54
13690;BME280;6917;52.194;9.894;2023-03-04T01:51:17;100999.28;;;3.30;99.81
13690;BME280;6917;52.194;9.894;2023-03-04T01:53:43;100985.22;;;3.28;100.00
13690;BME280;6917;52.194;9.894;2023-03-04T01:56:33;100984.16;;;3.29;99.73
13690;BME280;6917;52.194;9.894;2023-03-04T01:59:22;100971.22;;;3.31;100.00
13690;BME280;6917;52.194;9.894;2023-03-04T02:02:08;100961.81;;;3.34;100.00
13690;BME280;6917;52.194;9.894;2023-03-04T02:04:33;100966.16;;;3.35;99.52
13690;BME280;6917;52.194;9.894;2023-03-04T02:07:00;100962.69;;;3.39;99.63
13690;BME280;6917;52.194;9.894;2023-03-04T02:09:27;100959.97;;;3.39;99.55
13690;BME280;6917;52.194;9.894;2023-03-04T02:11:54;100953.50;;;3.40;99.58
13690;BME280;6917;52.194;9.894;2023-03-04T02:14:19;100954.63;;;3.44;99.75
13690;BME280;6917;52.194;9.894;2023-03-04T02:16:46;100955.97;;;3.42;99.80
13690;BME280;6917;52.194;9.894;2023-03-04T02:19:17;100949.75;;;3.41;99.88
13690;BME280;6917;52.194;9.894;2023-03-04T02:21:44;100953.50;;;3.40;100.00
13690;BME280;6917;52.194;9.894;2023-03-04T02:26:35;100941.09;;;3.39;100.00
13690;BME280;6917;52.194;9.894;2023-03-04T02:29:02;100943.84;;;3.44;100.00
13690;BME280;6917;52.194;9.894;2023-03-04T02:31:42;100930.88;;;3.46;100.00
13690;BME280;6917;52.194;9.894;2023-03-04T02:34:23;100935.00;;;3.49;100.00
13690;BME280;6917;52.194;9.894;2023-03-04T02:36:51;100933.66;;;3.51;100.00
13690;BME280;6917;52.194;9.894;2023-03-04T02:41:46;100936.41;;;3.56;100.00
13690;BME280;6917;52.194;9.894;2023-03-04T02:44:19;100924.53;;;3.57;99.98
13690;BME280;6917;52.194;9.894;2023-03-04T02:46:45;100921.84;;;3.57;99.78
13690;BME280;6917;52.194;9.894;2023-03-04T02:49:12;100922.66;;;3.58;100.00
13690;BME280;6917;52.194;9.894;2023-03-04T02:51:37;100934.59;;;3.62;99.92
13690;BME280;6917;52.194;9.894;2023-03-04T02:54:03;100930.56;;;3.65;100.00
13690;BME280;6917;52.194;9.894;2023-03-04T02:56:29;100935.72;;;3.66;100.00
13690;BME280;6917;52.194;9.894;2023-03-04T02:58:54;100931.94;;;3.67;100.00
13690;BME280;6917;52.194;9.894;2023-03-04T03:01:20;100927.38;;;3.68;99.89
13690;BME280;6917;52.194;9.894;2023-03-04T03:03:45;100920.88;;;3.69;99.78
13690;BME280;6917;52.194;9.894;2023-03-04T03:06:10;100923.59;;;3.69;99.84
13690;BME280;6917;52.194;9.894;2023-03-04T03:08:36;100925.22;;;3.70;99.96
13690;BME280;6917;52.194;9.894;2023-03-04T03:11:01;100928.22;;;3.73;99.73
13690;BME280;6917;52.194;9.894;2023-03-04T03:13:26;100925.84;;;3.77;99.87
13690;BME280;6917;52.194;9.894;2023-03-04T03:15:53;100917.97;;;3.75;100.00
13690;BME280;6917;52.194;9.894;2023-03-04T03:18:18;100922.56;;;3.75;100.00
13690;BME280;6917;52.194;9.894;2023-03-04T03:20:43;100919.84;;;3.75;100.00
13690;BME280;6917;52.194;9.894;2023-03-04T03:23:08;100920.13;;;3.73;100.00
13690;BME280;6917;52.194;9.894;2023-03-04T03:25:34;100912.81;;;3.74;100.00
13690;BME280;6917;52.194;9.894;2023-03-04T03:27:59;100909.31;;;3.73;100.00
13690;BME280;6917;52.194;9.894;2023-03-04T03:30:24;100919.63;;;3.76;100.00
13690;BME280;6917;52.194;9.894;2023-03-04T03:32:50;100905.28;;;3.76;100.00
13690;BME280;6917;52.194;9.894;2023-03-04T03:35:16;100917.16;;;3.75;100.00
13690;BME280;6917;52.194;9.894;2023-03-04T03:37:41;100914.72;;;3.73;100.00
13690;BME280;6917;52.194;9.894;2023-03-04T03:40:07;100904.72;;;3.74;100.00
13690;BME280;6917;52.194;9.894;2023-03-04T03:42:32;100913.91;;;3.73;100.00
13690;BME280;6917;52.194;9.894;2023-03-04T03:44:58;100904.97;;;3.72;100.00
13690;BME280;6917;52.194;9.894;2023-03-04T03:47:23;100908.50;;;3.73;100.00
13690;BME280;6917;52.194;9.894;2023-03-04T03:49:48;100910.13;;;3.74;100.00
13690;BME280;6917;52.194;9.894;2023-03-04T03:52:14;100909.81;;;3.70;100.00
13690;BME280;6917;52.194;9.894;2023-03-04T03:54:39;100901.72;;;3.70;100.00
13690;BME280;6917;52.194;9.894;2023-03-04T03:57:04;100908.19;;;3.69;100.00
13690;BME280;6917;52.194;9.894;2023-03-04T03:59:30;100902.22;;;3.67;100.00
13690;BME280;6917;52.194;9.894;2023-03-04T04:01:55;100899.78;;;3.66;100.00
13690;BME280;6917;52.194;9.894;2023-03-04T04:04:20;100901.94;;;3.64;100.00
13690;BME280;6917;52.194;9.894;2023-03-04T04:06:46;100902.50;;;3.66;100.00
13690;BME280;6917;52.194;9.894;2023-03-04T04:09:11;100893.56;;;3.65;100.00
13690;BME280;6917;52.194;9.894;2023-03-04T04:11:36;100892.44;;;3.61;100.00
13690;BME280;6917;52.194;9.894;2023-03-04T04:14:02;100903.00;;;3.63;100.00
13690;BME280;6917;52.194;9.894;2023-03-04T04:16:27;100898.41;;;3.63;100.00
13690;BME280;6917;52.194;9.894;2023-03-04T04:18:53;100887.53;;;3.58;100.00
13690;BME280;6917;52.194;9.894;2023-03-04T04:21:18;100895.63;;;3.58;100.00
13690;BME280;6917;52.194;9.894;2023-03-04T04:23:43;100885.38;;;3.60;100.00
13690;BME280;6917;52.194;9.894;2023-03-04T04:26:09;100895.94;;;3.62;100.00
13690;BME280;6917;52.194;9.894;2023-03-04T04:28:34;100892.19;;;3.63;100.00
13690;BME280;6917;52.194;9.894;2023-03-04T04:30:59;100892.19;;;3.63;100.00
13690;BME280;6917;52.194;9.894;2023-03-04T04:33:25;100880.00;;;3.60;100.00
13690;BME280;6917;52.194;9.894;2023-03-04T04:35:50;100883.75;;;3.59;100.00
13690;BME280;6917;52.194;9.894;2023-03-04T04:38:16;100879.44;;;3.58;100.00
13690;BME280;6917;52.194;9.894;2023-03-04T04:40:41;100877.25;;;3.55;100.00
13690;BME280;6917;52.194;9.894;2023-03-04T04:43:07;100873.72;;;3.54;100.00
13690;BME280;6917;52.194;9.894;2023-03-04T04:45:33;100881.28;;;3.52;100.00
13690;BME280;6917;52.194;9.894;2023-03-04T04:47:58;100880.47;;;3.52;100.00
13690;BME280;6917;52.194;9.894;2023-03-04T04:50:24;100876.94;;;3.51;100.00
13690;BME280;6917;52.194;9.894;2023-03-04T04:52:50;100878.84;;;3.51;100.00
13690;BME280;6917;52.194;9.894;2023-03-04T04:55:15;100873.44;;;3.51;100.00
13690;BME280;6917;52.194;9.894;2023-03-04T04:57:40;100877.19;;;3.50;100.00
13690;BME280;6917;52.194;9.894;2023-03-04T05:00:07;100875.81;;;3.47;100.00
13690;BME280;6917;52.194;9.894;2023-03-04T05:02:34;100870.66;;;3.46;100.00
13690;BME280;6917;52.194;9.894;2023-03-04T05:05:01;100877.38;;;3.43;100.00
13690;BME280;6917;52.194;9.894;2023-03-04T05:07:26;100874.13;;;3.41;100.00
13690;BME280;6917;52.194;9.894;2023-03-04T05:09:52;100861.94;;;3.39;100.00
13690;BME280;6917;52.194;9.894;2023-03-04T05:12:17;100867.59;;;3.37;100.00
13690;BME280;6917;52.194;9.894;2023-03-04T05:14:42;100862.47;;;3.36;100.00
13690;BME280;6917;52.194;9.894;2023-03-04T05:17:08;100861.66;;;3.35;100.00
13690;BME280;6917;52.194;9.894;2023-03-04T05:19:33;100855.69;;;3.33;100.00
13690;BME280;6917;52.194;9.894;2023-03-04T05:21:58;100856.72;;;3.32;100.00
13690;BME280;6917;52.194;9.894;2023-03-04T05:24:23;100854.84;;;3.33;100.00
13690;BME280;6917;52.194;9.894;2023-03-04T05:26:49;100845.38;;;3.30;100.00
13690;BME280;6917;52.194;9.894;2023-03-04T05:29:14;100846.19;;;3.31;100.00
13690;BME280;6917;52.194;9.894;2023-03-04T05:31:39;100852.41;;;3.31;100.00
13690;BME280;6917;52.194;9.894;2023-03-04T05:34:04;100851.59;;;3.31;100.00
13690;BME280;6917;52.194;9.894;2023-03-04T05:36:30;100848.63;;;3.32;100.00
13690;BME280;6917;52.194;9.894;2023-03-04T05:38:55;100845.38;;;3.30;100.00
13690;BME280;6917;52.194;9.894;2023-03-04T05:41:20;100847.25;;;3.29;100.00
13690;BME280;6917;52.194;9.894;2023-03-04T05:43:48;100862.06;;;3.27;100.00
13690;BME280;6917;52.194;9.894;2023-03-04T05:46:15;100855.88;;;3.26;100.00
13690;BME280;6917;52.194;9.894;2023-03-04T05:48:41;100854.50;;;3.24;100.00
13690;BME280;6917;52.194;9.894;2023-03-04T05:51:07;100850.97;;;3.23;100.00
13690;BME280;6917;52.194;9.894;2023-03-04T05:53:33;100846.38;;;3.24;100.00
13690;BME280;6917;52.194;9.894;2023-03-04T05:56:06;100841.00;;;3.24;100.00
13690;BME280;6917;52.194;9.894;2023-03-04T05:58:31;100841.00;;;3.24;100.00
13690;BME280;6917;52.194;9.894;2023-03-04T06:00:59;100839.09;;;3.24;100.00
13690;BME280;6917;52.194;9.894;2023-03-04T06:03:24;100846.13;;;3.25;100.00
13690;BME280;6917;52.194;9.894;2023-03-04T06:05:50;100843.44;;;3.25;100.00
13690;BME280;6917;52.194;9.894;2023-03-04T06:08:15;100839.66;;;3.26;100.00
13690;BME280;6917;52.194;9.894;2023-03-04T06:10:40;100843.94;;;3.22;100.00
13690;BME280;6917;52.194;9.894;2023-03-04T06:13:07;100849.03;;;3.19;100.00
13690;BME280;6917;52.194;9.894;2023-03-04T06:15:32;100847.91;;;3.15;100.00
13690;BME280;6917;52.194;9.894;2023-03-04T06:17:58;100839.25;;;3.13;100.00
13690;BME280;6917;52.194;9.894;2023-03-04T06:20:23;100851.66;;;3.14;100.00
13690;BME280;6917;52.194;9.894;2023-03-04T06:22:48;100846.25;;;3.14;100.00
13690;BME280;6917;52.194;9.894;2023-03-04T06:25:14;100846.25;;;3.14;100.00
13690;BME280;6917;52.194;9.894;2023-03-04T06:27:39;100848.72;;;3.15;100.00
13690;BME280;6917;52.194;9.894;2023-03-04T06:30:05;100849.53;;;3.16;100.00
13690;BME280;6917;52.194;9.894;2023-03-04T06:32:31;100853.84;;;3.17;100.00
13690;BME280;6917;52.194;9.894;2023-03-04T06:34:56;100859.03;;;3.18;100.00
13690;BME280;6917;52.194;9.894;2023-03-04T06:37:21;100862.28;;;3.20;100.00
13690;BME280;6917;52.194;9.894;2023-03-04T06:39:47;100849.03;;;3.19;100.00
13690;BME280;6917;52.194;9.894;2023-03-04T06:42:13;100859.84;;;3.19;100.00
13690;BME280;6917;52.194;9.894;2023-03-04T06:44:38;100859.59;;;3.20;100.00
13690;BME280;6917;52.194;9.894;2023-03-04T06:47:03;100858.50;;;3.21;100.00
13690;BME280;6917;52.194;9.894;2023-03-04T06:49:29;100861.47;;;3.20;100.00
13690;BME280;6917;52.194;9.894;2023-03-04T06:51:54;100856.88;;;3.20;100.00
13690;BME280;6917;52.194;9.894;2023-03-04T06:54:19;100852.31;;;3.21;100.00
13690;BME280;6917;52.194;9.894;2023-03-04T06:56:45;100856.88;;;3.20;100.00
13690;BME280;6917;52.194;9.894;2023-03-04T06:59:10;100847.22;;;3.24;100.00
13690;BME280;6917;52.194;9.894;2023-03-04T07:01:35;100851.03;;;3.28;100.00
13690;BME280;6917;52.194;9.894;2023-03-04T07:04:02;100861.09;;;3.33;100.00
13690;BME280;6917;52.194;9.894;2023-03-04T07:06:28;100858.44;;;3.38;100.00
13690;BME280;6917;52.194;9.894;2023-03-04T07:08:54;100843.59;;;3.41;100.00
13690;BME280;6917;52.194;9.894;2023-03-04T07:11:20;100846.59;;;3.44;100.00
13690;BME280;6917;52.194;9.894;2023-03-04T07:13:46;100845.28;;;3.47;100.00
13690;BME280;6917;52.194;9.894;2023-03-04T07:16:14;100845.09;;;3.53;100.00
13690;BME280;6917;52.194;9.894;2023-03-04T07:18:39;100839.16;;;3.56;100.00
13690;BME280;6917;52.194;9.894;2023-03-04T07:21:06;100855.13;;;3.58;100.00
13690;BME280;6917;52.194;9.894;2023-03-04T07:23:31;100845.47;;;3.62;100.00
13690;BME280;6917;52.194;9.894;2023-03-04T07:25:57;100856.81;;;3.64;100.00
13690;BME280;6917;52.194;9.894;2023-03-04T07:28:22;100845.22;;;3.69;100.00
13690;BME280;6917;52.194;9.894;2023-03-04T07:30:47;100859.03;;;3.72;100.00
13690;BME280;6917;52.194;9.894;2023-03-04T07:33:13;100850.69;;;3.74;100.00
13690;BME280;6917;52.194;9.894;2023-03-04T07:35:39;100846.97;;;3.80;100.00
13690;BME280;6917;52.194;9.894;2023-03-04T07:38:04;100857.00;;;3.84;100.00
13690;BME280;6917;52.194;9.894;2023-03-04T07:40:30;100857.28;;;3.88;100.00
13690;BME280;6917;52.194;9.894;2023-03-04T07:42:55;100868.38;;;3.86;100.00
13690;BME280;6917;52.194;9.894;2023-03-04T07:45:22;100870.25;;;3.86;100.00
13690;BME280;6917;52.194;9.894;2023-03-04T07:47:47;100859.19;;;3.87;100.00
13690;BME280;6917;52.194;9.894;2023-03-04T07:50:14;100865.38;;;3.83;100.00
13690;BME280;6917;52.194;9.894;2023-03-04T07:52:47;100859.69;;;3.84;100.00
13690;BME280;6917;52.194;9.894;2023-03-04T07:55:14;100867.28;;;3.87;100.00
13690;BME280;6917;52.194;9.894;2023-03-04T07:57:41;100863.31;;;3.95;100.00
13690;BME280;6917;52.194;9.894;2023-03-04T08:00:08;100849.03;;;4.00;100.00
13690;BME280;6917;52.194;9.894;2023-03-04T08:02:34;100852.59;;;4.05;100.00
13690;BME280;6917;52.194;9.894;2023-03-04T08:04:59;100849.13;;;4.10;100.00
13690;BME280;6917;52.194;9.894;2023-03-04T08:07:24;100852.13;;;4.18;100.00
13690;BME280;6917;52.194;9.894;2023-03-04T08:09:49;100857.06;;;4.22;100.00
13690;BME280;6917;52.194;9.894;2023-03-04T08:12:15;100848.94;;;4.22;100.00
13690;BME280;6917;52.194;9.894;2023-03-04T08:14:40;100851.66;;;4.22;100.00
13690;BME280;6917;52.194;9.894;2023-03-04T08:17:06;100847.06;;;4.22;100.00
13690;BME280;6917;52.194;9.894;2023-03-04T08:19:31;100851.13;;;4.25;100.00
13690;BME280;6917;52.194;9.894;2023-03-04T08:21:56;100845.72;;;4.25;100.00
13690;BME280;6917;52.194;9.894;2023-03-04T08:24:22;100842.78;;;4.31;100.00
13690;BME280;6917;52.194;9.894;2023-03-04T08:26:49;100837.16;;;4.38;100.00
13690;BME280;6917;52.194;9.894;2023-03-04T08:29:18;100836.66;;;4.46;100.00
13690;BME280;6917;52.194;9.894;2023-03-04T08:31:44;100842.09;;;4.51;100.00
13690;BME280;6917;52.194;9.894;2023-03-04T08:34:11;100844.81;;;4.51;100.00
13690;BME280;6917;52.194;9.894;2023-03-04T08:36:37;100847.00;;;4.54;100.00
13690;BME280;6917;52.194;9.894;2023-03-04T08:39:03;100855.63;;;4.51;100.00
13690;BME280;6917;52.194;9.894;2023-03-04T08:41:29;100849.69;;;4.49;100.00
13690;BME280;6917;52.194;9.894;2023-03-04T08:43:55;100843.13;;;4.40;100.00
13690;BME280;6917;52.194;9.894;2023-03-04T08:46:20;100844.66;;;4.31;100.00
13690;BME280;6917;52.194;9.894;2023-03-04T08:48:45;100847.88;;;4.23;100.00
13690;BME280;6917;52.194;9.894;2023-03-04T08:51:13;100846.78;;;4.24;100.00
13690;BME280;6917;52.194;9.894;2023-03-04T08:53:39;100845.16;;;4.23;100.00
13690;BME280;6917;52.194;9.894;2023-03-04T08:56:05;100850.03;;;4.26;100.00
13690;BME280;6917;52.194;9.894;2023-03-04T08:58:34;100847.63;;;4.29;100.00
13690;BME280;6917;52.194;9.894;2023-03-04T09:01:00;100852.56;;;4.37;100.00
13690;BME280;6917;52.194;9.894;2023-03-04T09:03:26;100852.03;;;4.40;100.00
13690;BME280;6917;52.194;9.894;2023-03-04T09:05:52;100851.84;;;4.52;100.00
13690;BME280;6917;52.194;9.894;2023-03-04T09:08:17;100842.09;;;4.51;100.00
13690;BME280;6917;52.194;9.894;2023-03-04T09:10:44;100845.09;;;4.55;100.00
13690;BME280;6917;52.194;9.894;2023-03-04T09:13:10;100843.75;;;4.57;100.00
13690;BME280;6917;52.194;9.894;2023-03-04T09:15:37;100846.19;;;4.59;100.00
13690;BME280;6917;52.194;9.894;2023-03-04T09:18:03;100850.88;;;4.68;100.00
13690;BME280;6917;52.194;9.894;2023-03-04T09:20:30;100850.06;;;4.73;100.00
13690;BME280;6917;52.194;9.894;2023-03-04T09:22:55;100848.47;;;4.77;100.00
13690;BME280;6917;52.194;9.894;2023-03-04T09:25:21;100845.25;;;4.80;100.00
13690;BME280;6917;52.194;9.894;2023-03-04T09:27:46;100848.25;;;4.84;100.00
13690;BME280;6917;52.194;9.894;2023-03-04T09:30:12;100847.16;;;4.90;100.00
13690;BME280;6917;52.194;9.894;2023-03-04T09:32:37;100857.50;;;4.93;100.00
13690;BME280;6917;52.194;9.894;2023-03-04T09:35:03;100856.41;;;4.94;100.00
13690;BME280;6917;52.194;9.894;2023-03-04T09:37:29;100855.34;;;4.95;100.00
13690;BME280;6917;52.194;9.894;2023-03-04T09:39:54;100856.09;;;4.90;100.00
13690;BME280;6917;52.194;9.894;2023-03-04T09:42:43;100852.84;;;4.88;100.00
13690;BME280;6917;52.194;9.894;2023-03-04T09:45:15;100853.63;;;4.78;100.00
13690;BME280;6917;52.194;9.894;2023-03-04T09:47:41;100860.91;;;4.73;100.00
13690;BME280;6917;52.194;9.894;2023-03-04T09:50:10;100843.28;;;4.70;100.00
13690;BME280;6917;52.194;9.894;2023-03-04T10:00:44;100844.84;;;4.56;100.00
13690;BME280;6917;52.194;9.894;2023-03-04T10:03:17;100850.97;;;4.46;100.00
13690;BME280;6917;52.194;9.894;2023-03-04T10:08:39;100840.16;;;4.41;100.00
13690;BME280;6917;52.194;9.894;2023-03-04T10:11:12;100839.06;;;4.42;100.00
13690;BME280;6917;52.194;9.894;2023-03-04T10:13:47;100836.91;;;4.44;100.00
13690;BME280;6917;52.194;9.894;2023-03-04T10:16:20;100836.72;;;4.56;100.00
13690;BME280;6917;52.194;9.894;2023-03-04T10:21:50;100844.63;;;4.68;100.00
13690;BME280;6917;52.194;9.894;2023-03-04T10:24:21;100830.84;;;4.69;100.00
13690;BME280;6917;52.194;9.894;2023-03-04T10:26:54;100839.53;;;4.76;100.00
13690;BME280;6917;52.194;9.894;2023-03-04T10:29:23;100839.78;;;4.75;100.00
13690;BME280;6917;52.194;9.894;2023-03-04T10:31:49;100841.94;;;4.73;100.00
13690;BME280;6917;52.194;9.894;2023-03-04T10:34:16;100852.75;;;4.68;100.00
13690;BME280;6917;52.194;9.894;2023-03-04T10:37:00;100846.25;;;4.69;100.00
13690;BME280;6917;52.194;9.894;2023-03-04T10:39:35;100851.69;;;4.74;100.00
13690;BME280;6917;52.194;9.894;2023-03-04T10:42:03;100850.06;;;4.68;100.00
13690;BME280;6917;52.194;9.894;2023-03-04T10:44:32;100846.53;;;4.72;100.00
13690;BME280;6917;52.194;9.894;2023-03-04T10:46:58;100846.81;;;4.76;100.00
13690;BME280;6917;52.194;9.894;2023-03-04T10:49:25;100844.44;;;4.85;100.00
13690;BME280;6917;52.194;9.894;2023-03-04T10:52:01;100843.69;;;4.99;100.00
13690;BME280;6917;52.194;9.894;2023-03-04T10:54:54;100841.88;;;5.15;100.00
13690;BME280;6917;52.194;9.894;2023-03-04T10:57:34;100840.03;;;5.31;100.00
13690;BME280;6917;52.194;9.894;2023-03-04T11:02:47;100829.75;;;5.38;96.60
13690;BME280;6917;52.194;9.894;2023-03-04T11:05:23;100818.13;;;5.43;94.86
13690;BME280;6917;52.194;9.894;2023-03-04T11:07:58;100819.78;;;5.54;93.84
13690;BME280;6917;52.194;9.894;2023-03-04T11:12:55;100819.22;;;5.57;91.79
13690;BME280;6917;52.194;9.894;2023-03-04T11:15:25;100824.41;;;5.68;92.46
13690;BME280;6917;52.194;9.894;2023-03-04T11:18:15;100836.31;;;5.67;92.08
13690;BME280;6917;52.194;9.894;2023-03-04T11:20:45;100838.19;;;5.62;92.44
13690;BME280;6917;52.194;9.894;2023-03-04T11:23:18;100842.00;;;5.56;92.71
13690;BME280;6917;52.194;9.894;2023-03-04T11:26:01;100833.56;;;5.47;92.82
13690;BME280;6917;52.194;9.894;2023-03-04T11:30:58;100823.25;;;5.44;93.44
13690;BME280;6917;52.194;9.894;2023-03-04T11:33:37;100823.56;;;5.53;94.20
13690;BME280;6917;52.194;9.894;2023-03-04T11:36:30;100829.53;;;5.50;93.98
13690;BME280;6917;52.194;9.894;2023-03-04T11:38:56;100818.13;;;5.53;94.52
13690;BME280;6917;52.194;9.894;2023-03-04T11:43:49;100828.22;;;5.93;95.52
13690;BME280;6917;52.194;9.894;2023-03-04T11:46:23;100820.38;;;6.12;93.16
13690;BME280;6917;52.194;9.894;2023-03-04T11:49:17;100808.44;;;6.08;93.16
13690;BME280;6917;52.194;9.894;2023-03-04T11:55:26;100808.41;;;6.18;92.51
13690;BME280;6917;52.194;9.894;2023-03-04T11:58:18;100819.53;;;5.91;93.71
13690;BME280;6917;52.194;9.894;2023-03-04T12:01:09;100811.38;;;5.65;93.87
13690;BME280;6917;52.194;9.894;2023-03-04T12:04:06;100812.72;;;5.53;94.36
13690;BME280;6917;52.194;9.894;2023-03-04T12:09:23;100810.25;;;5.46;95.17
13690;BME280;6917;52.194;9.894;2023-03-04T12:12:21;100809.97;;;5.43;94.59
13690;BME280;6917;52.194;9.894;2023-03-04T12:15:12;100805.63;;;5.31;95.31
13690;BME280;6917;52.194;9.894;2023-03-04T12:18:24;100809.44;;;5.41;96.34
13690;BME280;6917;52.194;9.894;2023-03-04T12:34:32;100791.03;;;5.53;97.40
13690;BME280;6917;52.194;9.894;2023-03-04T12:45:24;100779.38;;;5.37;94.25
13690;BME280;6917;52.194;9.894;2023-03-04T12:51:40;100774.50;;;5.54;92.92
13690;BME280;6917;52.194;9.894;2023-03-04T12:56:48;100761.72;;;5.34;89.80
13690;BME280;6917;52.194;9.894;2023-03-04T12:59:18;100751.44;;;5.31;88.64
13690;BME280;6917;52.194;9.894;2023-03-04T13:01:55;100754.97;;;5.32;87.74
13690;BME280;6917;52.194;9.894;2023-03-04T13:04:56;100747.09;;;5.30;86.71
13690;BME280;6917;52.194;9.894;2023-03-04T13:07:36;100748.22;;;5.40;87.59
13690;BME280;6917;52.194;9.894;2023-03-04T13:10:10;100747.41;;;5.44;87.73
13690;BME280;6917;52.194;9.894;2023-03-04T13:12:52;100750.41;;;5.53;87.27
13690;BME280;6917;52.194;9.894;2023-03-04T13:17:51;100749.28;;;5.74;86.58
13690;BME280;6917;52.194;9.894;2023-03-04T13:56:46;100743.84;;;5.33;82.33
13690;BME280;6917;52.194;9.894;2023-03-04T13:59:28;100743.31;;;5.31;82.51
13690;BME280;6917;52.194;9.894;2023-03-04T14:02:00;100744.16;;;5.37;82.84
13690;BME280;6917;52.194;9.894;2023-03-04T14:04:41;100748.75;;;5.47;83.52
13690;BME280;6917;52.194;9.894;2023-03-04T14:07:29;100736.81;;;5.43;83.30
13690;BME280;6917;52.194;9.894;2023-03-04T14:12:40;100746.03;;;5.47;84.99
13690;BME280;6917;52.194;9.894;2023-03-04T14:17:39;100751.19;;;5.38;85.56
13690;BME280;6917;52.194;9.894;2023-03-04T14:20:28;100758.78;;;5.36;85.98
13690;BME280;6917;52.194;9.894;2023-03-04T14:22:55;100753.38;;;5.36;86.23
13690;BME280;6917;52.194;9.894;2023-03-04T14:25:31;100750.34;;;5.32;85.67
13690;BME280;6917;52.194;9.894;2023-03-04T14:28:12;100737.91;;;5.36;85.60
13690;BME280;6917;52.194;9.894;2023-03-04T14:30:39;100737.09;;;5.31;84.79
13690;BME280;6917;52.194;9.894;2023-03-04T14:33:22;100737.34;;;5.34;84.69
13690;BME280;6917;52.194;9.894;2023-03-04T14:35:50;100733.59;;;5.35;85.11
13690;BME280;6917;52.194;9.894;2023-03-04T14:38:25;100749.00;;;5.25;85.12
13690;BME280;6917;52.194;9.894;2023-03-04T14:41:15;100743.81;;;5.18;85.37
13690;BME280;6917;52.194;9.894;2023-03-04T14:43:45;100741.13;;;5.08;86.05
13690;BME280;6917;52.194;9.894;2023-03-04T14:46:16;100745.97;;;4.96;86.36
13690;BME280;6917;52.194;9.894;2023-03-04T14:48:49;100744.88;;;4.97;86.98
13690;BME280;6917;52.194;9.894;2023-03-04T14:54:00;100743.25;;;4.96;87.88
13690;BME280;6917;52.194;9.894;2023-03-04T14:56:28;100734.31;;;5.00;88.43
13690;BME280;6917;52.194;9.894;2023-03-04T14:58:56;100727.81;;;5.01;88.12
13690;BME280;6917;52.194;9.894;2023-03-04T15:01:29;100735.69;;;5.03;87.71